Pagrindinis puslapis
METAR-TAF:

METAR-TAF

Oro uostai :

Funšalis, Madeiros salos, Portugalija

platuma: 32-41-52N, ilguma: 016-46-28W, Aukštis: 59 m

Dabartinis oras

Ataskaita buvo paskelbta 39 minutes, ne 08:00 UTC
Vėjas 18 kt iš Šiaurės
Temperatūra 17°C
Drėgmė 77%
Slėgis 1026 hPa
Matomumas 10 km arba daugiau
Mažai debesys ne aukštis 1500 ft

METAR: LPMA 230800Z 01018KT 9999 FEW015 17/13 Q1026

Laikas: 08:39 (08:39 UTC)

Prognozė

Ataskaita buvo paskelbta 3 valandos ir 39 minutes, ne 05:00 UTC
Prognozė galioja nuo 23 metu 06 UTC su 24 metu 06 UTC
Vėjas 15 kt iš Šiaurės/Šiaurės Rytų
Matomumas 10 km arba daugiau
Išsisklaidę debesys ne aukštis 1600 ft
Laikinai
nuo 23 metu 06 UTC su 24 metu 06 UTC
Vėjas 18 kt iš Šiaurės su gūsio iki 30 kt

TAF: LPMA 230500Z 2306/2406 02015KT 9999 SCT016 TEMPO 2306/2406 01018G30KT

Orai ataskaitas ir orų prognozės (METAR, TAF).

turimą stotys yra geltonos ir raudonos taškus žemėlapyje.

Perkelti pele per norėdami pamatyti stoties vardą.

Tada spustelėkite, norėdami matyti oro stebėjimo ir prognozės.

Norėdami pakeisti žemėlapį: spustelėkite ant žalios mygtukų su juodo kryžiaus žemyn,; žalią mygtuką su brūkšneliu, jei norite nutolinti; arba žalių rodyklių gretimoms žemėlapius.


METAR-TAF: